Time;durP1;ratioP1;P1;durP2;ratioP2;P2;SDS_P1;SDS_P2;PMS_P1;PMS_P2;Temp;Humidity;BMP_temperature;BMP_pressure;BME280_temperature;BME280_humidity;BME280_pressure;Samples;Min_cycle;Max_cycle;Signal;HPM_P1;HPM_P2
2021/06/27 00:00:12;;;;;;;16.85;11.75;;;18.90;99.90;;;;;;5064576;28;20113;-65
2021/06/27 00:02:39;;;;;;;17.27;10.75;;;18.90;99.90;;;;;;5064402;28;20517;-65
2021/06/27 00:05:09;;;;;;;16.00;11.15;;;18.80;99.90;;;;;;5066481;28;20052;-64
2021/06/27 00:07:37;;;;;;;26.83;17.13;;;18.80;99.90;;;;;;5062834;28;20501;-65
2021/06/27 00:10:07;;;;;;;27.63;19.48;;;18.80;99.90;;;;;;5065871;28;20184;-64
2021/06/27 00:12:34;;;;;;;28.42;19.67;;;18.70;99.90;;;;;;5063407;28;20051;-65
2021/06/27 00:15:01;;;;;;;22.65;17.30;;;18.60;99.90;;;;;;5062896;28;20079;-65
2021/06/27 00:17:29;;;;;;;17.63;12.55;;;18.60;99.90;;;;;;5062951;28;20504;-65
2021/06/27 00:19:56;;;;;;;17.33;12.10;;;18.50;99.90;;;;;;5063493;28;20057;-65
2021/06/27 00:22:23;;;;;;;18.25;13.48;;;18.40;99.90;;;;;;5065260;28;20052;-65
2021/06/27 00:24:50;;;;;;;24.80;13.80;;;18.50;99.90;;;;;;5072093;28;20076;-65
2021/06/27 00:27:19;;;;;;;18.88;13.02;;;18.50;99.90;;;;;;5072226;28;20117;-64
2021/06/27 00:29:46;;;;;;;18.75;11.23;;;18.40;99.90;;;;;;5073270;28;20117;-65
2021/06/27 00:32:13;;;;;;;20.85;12.77;;;18.30;99.90;;;;;;5066176;28;20044;-65
2021/06/27 00:34:41;;;;;;;16.40;11.75;;;18.30;99.90;;;;;;5064218;28;20072;-65
2021/06/27 00:37:09;;;;;;;21.45;11.77;;;18.30;99.90;;;;;;5063168;28;20127;-65
2021/06/27 00:39:36;;;;;;;17.25;10.40;;;18.20;99.90;;;;;;5061031;28;20147;-65
2021/06/27 00:42:04;;;;;;;17.77;11.88;;;18.20;99.90;;;;;;5060929;28;20074;-65
2021/06/27 00:44:31;;;;;;;15.40;11.57;;;18.10;99.90;;;;;;5063096;28;20080;-65
2021/06/27 00:46:58;;;;;;;17.20;11.25;;;18.10;99.90;;;;;;5062495;28;20048;-65
2021/06/27 00:49:25;;;;;;;16.30;10.52;;;18.10;99.90;;;;;;5062347;28;20534;-65
2021/06/27 00:51:54;;;;;;;18.63;11.63;;;18.10;99.90;;;;;;5062849;28;20105;-64
2021/06/27 00:54:21;;;;;;;18.60;12.25;;;18.10;99.90;;;;;;5062106;28;20106;-65
2021/06/27 00:56:48;;;;;;;15.77;11.95;;;18.10;99.90;;;;;;5061411;28;20048;-65
2021/06/27 00:59:15;;;;;;;18.25;11.55;;;18.10;99.90;;;;;;5059609;28;20075;-65
2021/06/27 01:01:42;;;;;;;17.45;11.52;;;18.10;99.90;;;;;;5060103;28;20137;-65
2021/06/27 01:04:09;;;;;;;16.95;12.27;;;18.00;99.90;;;;;;5063741;28;20534;-65
2021/06/27 01:06:35;;;;;;;15.90;11.32;;;18.00;99.90;;;;;;5062107;28;20044;-65
2021/06/27 01:09:04;;;;;;;16.50;11.88;;;17.90;99.90;;;;;;5064481;28;20602;-64
2021/06/27 01:11:32;;;;;;;15.98;11.43;;;17.90;99.90;;;;;;5062329;28;20056;-65
2021/06/27 01:14:01;;;;;;;17.08;11.82;;;17.80;99.90;;;;;;5062642;28;20040;-65
2021/06/27 01:16:28;;;;;;;17.70;12.38;;;17.80;99.90;;;;;;5063442;28;20362;-65
2021/06/27 01:18:55;;;;;;;17.10;11.25;;;17.80;99.90;;;;;;5061585;28;20489;-65
2021/06/27 01:21:24;;;;;;;16.10;11.23;;;17.80;99.90;;;;;;5062573;28;20500;-65
2021/06/27 01:23:51;;;;;;;19.20;11.93;;;17.80;99.90;;;;;;5061685;28;20109;-65
2021/06/27 01:26:18;;;;;;;15.02;11.15;;;17.90;99.90;;;;;;5060258;28;20048;-65
2021/06/27 01:28:45;;;;;;;17.63;11.57;;;17.70;99.90;;;;;;5062854;28;20055;-64
2021/06/27 01:31:13;;;;;;;16.65;12.18;;;17.70;99.90;;;;;;5065053;28;20047;-65
2021/06/27 01:33:41;;;;;;;20.15;12.55;;;17.80;99.90;;;;;;5062336;28;20057;-65
2021/06/27 01:36:08;;;;;;;22.65;12.43;;;17.60;99.90;;;;;;5065503;28;20118;-65
2021/06/27 01:38:37;;;;;;;17.38;11.82;;;17.60;99.90;;;;;;5060082;28;20472;-65
2021/06/27 01:41:05;;;;;;;20.75;13.40;;;17.70;99.90;;;;;;5063677;28;20047;-64
2021/06/27 01:43:32;;;;;;;16.85;11.18;;;17.60;99.90;;;;;;5064322;28;20053;-65
2021/06/27 01:46:01;;;;;;;27.42;12.80;;;17.60;99.90;;;;;;5062611;28;20462;-65
2021/06/27 01:48:29;;;;;;;21.10;12.38;;;17.60;99.90;;;;;;5062352;28;20049;-65
2021/06/27 01:50:58;;;;;;;17.95;12.02;;;17.50;99.90;;;;;;5060147;28;20048;-64
2021/06/27 01:53:28;;;;;;;20.90;12.93;;;17.60;99.90;;;;;;5062010;28;20052;-65
2021/06/27 01:56:07;;;;;;;18.70;12.25;;;17.50;99.90;;;;;;5060881;28;20134;-65
2021/06/27 01:58:37;;;;;;;16.73;11.18;;;17.50;99.90;;;;;;5062637;28;20101;-65
2021/06/27 02:01:06;;;;;;;17.35;11.57;;;17.50;99.90;;;;;;5061086;28;20056;-65
2021/06/27 02:03:33;;;;;;;16.95;12.43;;;17.50;99.90;;;;;;5063889;28;20137;-64
2021/06/27 02:06:00;;;;;;;17.75;11.82;;;17.40;99.90;;;;;;5061861;28;20152;-65
2021/06/27 02:08:34;;;;;;;16.42;11.40;;;17.40;99.90;;;;;;5060846;28;20192;-65
2021/06/27 02:11:05;;;;;;;18.23;12.52;;;17.40;99.90;;;;;;5061632;28;20113;-65
2021/06/27 02:13:33;;;;;;;20.30;11.52;;;17.30;99.90;;;;;;5062777;28;20049;-64
2021/06/27 02:16:01;;;;;;;20.63;12.85;;;17.30;99.90;;;;;;5060459;28;20084;-64
2021/06/27 02:18:31;;;;;;;19.33;13.75;;;17.40;99.90;;;;;;5060992;28;20132;-65
2021/06/27 02:21:01;;;;;;;19.05;13.20;;;17.30;99.90;;;;;;5062414;28;20108;-64
2021/06/27 02:23:30;;;;;;;18.70;12.63;;;17.20;99.90;;;;;;5062495;28;20117;-64
2021/06/27 02:25:58;;;;;;;19.85;12.80;;;17.20;99.90;;;;;;5063478;28;20052;-64
2021/06/27 02:28:26;;;;;;;17.95;12.77;;;17.20;99.90;;;;;;5060905;28;20465;-65
2021/06/27 02:30:53;;;;;;;22.70;13.18;;;17.20;99.90;;;;;;5061701;28;20390;-65
2021/06/27 02:33:21;;;;;;;18.42;12.75;;;17.20;99.90;;;;;;5060499;28;20148;-64
2021/06/27 02:35:49;;;;;;;18.48;12.35;;;17.20;99.90;;;;;;5065743;28;20422;-65
2021/06/27 02:38:16;;;;;;;16.08;12.32;;;17.20;99.90;;;;;;5064541;28;20132;-64
2021/06/27 02:40:45;;;;;;;18.70;13.30;;;17.10;99.90;;;;;;5065299;28;20094;-65
2021/06/27 02:43:14;;;;;;;19.38;13.77;;;17.10;99.90;;;;;;5065325;28;20469;-65
2021/06/27 02:45:42;;;;;;;17.98;12.95;;;17.20;99.90;;;;;;5065566;28;20052;-64
2021/06/27 02:48:10;;;;;;;18.90;13.18;;;17.10;99.90;;;;;;5065119;28;20106;-65
2021/06/27 02:50:38;;;;;;;18.65;13.20;;;17.00;99.90;;;;;;5064012;28;20500;-65
2021/06/27 02:53:06;;;;;;;20.27;14.15;;;17.10;99.90;;;;;;5066230;28;20058;-64
2021/06/27 02:55:34;;;;;;;17.80;13.10;;;17.00;99.90;;;;;;5063120;28;20093;-64
2021/06/27 02:58:01;;;;;;;19.10;13.77;;;16.90;99.90;;;;;;5067236;28;20509;-65
2021/06/27 03:00:29;;;;;;;19.90;13.65;;;16.80;99.90;;;;;;5066021;28;20059;-64
2021/06/27 03:02:57;;;;;;;22.52;13.70;;;16.80;99.90;;;;;;5062830;28;20048;-64
2021/06/27 03:05:25;;;;;;;19.42;13.15;;;16.80;99.90;;;;;;5066694;28;20080;-65
2021/06/27 03:07:52;;;;;;;20.65;13.98;;;16.80;99.90;;;;;;5065627;28;20084;-65
2021/06/27 03:10:21;;;;;;;19.58;14.32;;;16.80;99.90;;;;;;5064749;28;20048;-65
2021/06/27 03:12:50;;;;;;;21.85;13.48;;;16.80;99.90;;;;;;5067012;28;20076;-64
2021/06/27 03:15:19;;;;;;;25.30;14.00;;;16.80;99.90;;;;;;5066586;28;20052;-65
2021/06/27 03:17:47;;;;;;;22.00;14.13;;;16.80;99.90;;;;;;5067354;28;20045;-64
2021/06/27 03:20:17;;;;;;;20.55;12.55;;;16.80;99.90;;;;;;5066473;28;20110;-64
2021/06/27 03:22:46;;;;;;;18.00;12.48;;;16.80;99.90;;;;;;5069390;28;20075;-64
2021/06/27 03:25:15;;;;;;;21.05;13.77;;;16.90;99.90;;;;;;5069673;28;20436;-65
2021/06/27 03:27:43;;;;;;;24.08;12.80;;;16.80;99.90;;;;;;5068561;28;20508;-64
2021/06/27 03:30:12;;;;;;;19.15;13.10;;;16.70;99.90;;;;;;5067025;28;20052;-64
2021/06/27 03:32:38;;;;;;;18.55;13.25;;;16.80;99.90;;;;;;5067208;28;20080;-65
2021/06/27 03:35:07;;;;;;;20.63;13.65;;;16.70;99.90;;;;;;5065744;28;20049;-64
2021/06/27 03:37:35;;;;;;;18.48;13.52;;;16.80;99.90;;;;;;5067840;28;20048;-64
2021/06/27 03:40:03;;;;;;;20.20;13.27;;;16.80;99.90;;;;;;5067572;28;20052;-65
2021/06/27 03:42:30;;;;;;;21.38;14.48;;;16.80;99.90;;;;;;5066842;28;20101;-65
2021/06/27 03:44:57;;;;;;;22.00;13.80;;;16.80;99.90;;;;;;5070222;28;20087;-65
2021/06/27 03:47:25;;;;;;;21.52;14.57;;;16.70;99.90;;;;;;5069296;28;20086;-65
2021/06/27 03:49:53;;;;;;;19.35;13.30;;;16.70;99.90;;;;;;5068062;28;20048;-64
2021/06/27 03:52:20;;;;;;;17.90;12.98;;;16.70;99.90;;;;;;5067842;28;20084;-64
2021/06/27 03:54:49;;;;;;;19.60;14.27;;;16.70;99.90;;;;;;5068133;28;20500;-64
2021/06/27 03:57:16;;;;;;;17.52;12.85;;;16.80;99.90;;;;;;5068289;28;20411;-65
2021/06/27 03:59:43;;;;;;;22.67;13.60;;;16.70;99.90;;;;;;5066356;28;20097;-64
2021/06/27 04:02:10;;;;;;;20.17;14.43;;;16.80;99.90;;;;;;5069400;28;20419;-65
2021/06/27 04:04:37;;;;;;;19.23;13.57;;;16.60;99.90;;;;;;5067965;28;20160;-64
2021/06/27 04:07:04;;;;;;;20.52;13.55;;;16.70;99.90;;;;;;5066716;28;20489;-65
2021/06/27 04:09:31;;;;;;;20.85;14.45;;;16.70;99.90;;;;;;5068418;28;20859;-65
2021/06/27 04:11:59;;;;;;;19.77;13.77;;;16.80;99.90;;;;;;5067059;28;20487;-65
2021/06/27 04:14:26;;;;;;;19.02;13.20;;;16.70;99.90;;;;;;5068388;28;20052;-64
2021/06/27 04:16:53;;;;;;;22.30;13.43;;;16.80;99.90;;;;;;5067150;28;20451;-64
2021/06/27 04:19:20;;;;;;;18.95;12.48;;;16.70;99.90;;;;;;5067274;28;20463;-65
2021/06/27 04:21:47;;;;;;;18.33;13.50;;;16.80;99.90;;;;;;5068300;28;20047;-64
2021/06/27 04:24:14;;;;;;;19.65;12.43;;;16.70;99.90;;;;;;5068147;28;20129;-64
2021/06/27 04:26:41;;;;;;;19.35;13.38;;;16.80;99.90;;;;;;5065243;28;20048;-64
2021/06/27 04:29:12;;;;;;;21.48;13.95;;;16.90;99.90;;;;;;5065761;28;20060;-64
2021/06/27 04:31:40;;;;;;;21.30;13.02;;;16.80;99.90;;;;;;5067957;28;20055;-64
2021/06/27 04:34:07;;;;;;;23.90;14.52;;;16.80;99.90;;;;;;5069222;28;20131;-64
2021/06/27 04:36:34;;;;;;;20.65;12.32;;;16.90;99.90;;;;;;5067126;28;20461;-64
2021/06/27 04:39:01;;;;;;;23.05;13.23;;;17.00;99.90;;;;;;5066063;28;20048;-64
2021/06/27 04:41:28;;;;;;;22.23;14.23;;;17.10;99.90;;;;;;5066666;28;20056;-64
2021/06/27 04:43:56;;;;;;;20.63;13.52;;;17.10;99.90;;;;;;5069922;28;20090;-64
2021/06/27 04:46:24;;;;;;;19.50;12.95;;;17.10;99.90;;;;;;5068422;28;20056;-64
2021/06/27 04:48:51;;;;;;;20.45;13.43;;;17.10;99.90;;;;;;5067922;28;20045;-64
2021/06/27 04:51:18;;;;;;;20.55;13.55;;;17.10;99.90;;;;;;5067468;28;20091;-64
2021/06/27 04:53:45;;;;;;;18.20;13.38;;;17.20;99.90;;;;;;5067215;28;20080;-64
2021/06/27 04:56:12;;;;;;;18.27;13.18;;;17.30;99.90;;;;;;5067063;28;20052;-65
2021/06/27 04:58:39;;;;;;;17.65;13.25;;;17.30;99.90;;;;;;5065565;28;20076;-65
2021/06/27 05:01:06;;;;;;;21.73;13.13;;;17.30;99.90;;;;;;5066029;28;20083;-64
2021/06/27 05:03:35;;;;;;;18.08;12.75;;;17.30;99.90;;;;;;5067330;28;20048;-64
2021/06/27 05:06:03;;;;;;;19.08;13.43;;;17.40;99.90;;;;;;5068890;28;20408;-64
2021/06/27 05:08:30;;;;;;;21.00;13.15;;;17.50;99.90;;;;;;5065706;28;20087;-65
2021/06/27 05:10:58;;;;;;;18.02;12.60;;;17.60;99.90;;;;;;5065250;28;20071;-64
2021/06/27 05:13:25;;;;;;;18.70;12.18;;;17.70;99.90;;;;;;5068403;28;20986;-64
2021/06/27 05:15:52;;;;;;;17.33;13.10;;;17.80;99.90;;;;;;5066122;28;20080;-65
2021/06/27 05:18:20;;;;;;;22.02;13.02;;;17.90;99.90;;;;;;5064901;28;20470;-64
2021/06/27 05:20:48;;;;;;;18.25;12.52;;;17.90;99.90;;;;;;5067476;28;20500;-64
2021/06/27 05:23:15;;;;;;;19.65;12.43;;;18.00;99.90;;;;;;5065991;28;20080;-65
2021/06/27 05:25:42;;;;;;;15.30;11.32;;;18.10;99.90;;;;;;5065668;28;20464;-65
2021/06/27 05:28:11;;;;;;;16.95;11.63;;;18.20;99.90;;;;;;5065165;28;20565;-65
2021/06/27 05:30:38;;;;;;;17.73;11.93;;;18.20;99.90;;;;;;5067330;28;20048;-64
2021/06/27 05:33:05;;;;;;;18.05;13.05;;;18.40;99.90;;;;;;5067179;28;20110;-65
2021/06/27 05:35:32;;;;;;;20.48;12.52;;;18.40;99.90;;;;;;5063911;28;20140;-65
2021/06/27 05:38:00;;;;;;;15.90;11.50;;;18.40;99.90;;;;;;5064673;28;20524;-64
2021/06/27 05:40:28;;;;;;;16.80;11.73;;;18.70;99.90;;;;;;5067018;28;20048;-64
2021/06/27 05:42:55;;;;;;;17.48;11.43;;;18.90;99.90;;;;;;5064623;28;20127;-64
2021/06/27 05:45:22;;;;;;;15.80;11.00;;;19.10;99.90;;;;;;5066737;28;20131;-65
2021/06/27 05:47:49;;;;;;;18.05;12.25;;;19.30;99.90;;;;;;5065039;28;20145;-65
2021/06/27 05:50:16;;;;;;;19.55;11.95;;;19.30;99.90;;;;;;5063993;28;20098;-65
2021/06/27 05:52:43;;;;;;;15.98;11.05;;;19.40;99.90;;;;;;5064353;28;20567;-65
2021/06/27 05:55:12;;;;;;;17.02;11.60;;;19.50;99.90;;;;;;5066820;28;20102;-66
2021/06/27 05:57:39;;;;;;;15.43;10.93;;;19.40;99.90;;;;;;5066808;28;20470;-65
2021/06/27 06:00:07;;;;;;;16.00;10.68;;;19.70;99.90;;;;;;5065187;28;20044;-65
2021/06/27 06:02:34;;;;;;;15.95;10.32;;;19.70;99.90;;;;;;5064538;28;20044;-65
2021/06/27 06:05:01;;;;;;;15.02;10.63;;;19.90;99.90;;;;;;5067929;28;20457;-65
2021/06/27 06:07:28;;;;;;;16.88;12.05;;;19.90;99.90;;;;;;5065985;28;20084;-65
2021/06/27 06:09:55;;;;;;;14.27;10.98;;;20.10;99.90;;;;;;5067112;28;20040;-65
2021/06/27 06:12:23;;;;;;;16.48;11.57;;;20.20;99.90;;;;;;5063978;28;20470;-65
2021/06/27 06:14:50;;;;;;;17.77;11.70;;;20.30;99.90;;;;;;5066583;28;20075;-65
2021/06/27 06:17:17;;;;;;;20.83;11.52;;;20.30;99.90;;;;;;5065322;28;20056;-65
2021/06/27 06:19:49;;;;;;;13.90;10.60;;;20.40;99.90;;;;;;5065083;28;20048;-65
2021/06/27 06:22:16;;;;;;;16.95;12.07;;;20.50;99.90;;;;;;5066675;28;20079;-65
2021/06/27 06:24:43;;;;;;;18.08;12.13;;;20.50;99.90;;;;;;5064780;28;20626;-65
2021/06/27 06:27:10;;;;;;;12.68;10.57;;;20.60;99.90;;;;;;5066003;28;20512;-65
2021/06/27 06:29:38;;;;;;;14.73;11.07;;;20.60;99.90;;;;;;5066074;28;20520;-65
2021/06/27 06:32:06;;;;;;;15.18;10.70;;;20.70;99.90;;;;;;5064892;28;20713;-65
2021/06/27 06:34:33;;;;;;;15.38;10.48;;;20.60;99.90;;;;;;5065206;28;20102;-65
2021/06/27 06:37:00;;;;;;;12.60;9.82;;;20.70;99.90;;;;;;5066467;28;20048;-65
2021/06/27 06:39:27;;;;;;;13.48;10.63;;;20.70;99.90;;;;;;5068457;28;20687;-65
2021/06/27 06:41:53;;;;;;;15.35;10.48;;;20.70;99.90;;;;;;5065902;28;20076;-65
2021/06/27 06:44:20;;;;;;;16.50;10.65;;;20.70;99.90;;;;;;5067826;28;20109;-65
2021/06/27 06:46:49;;;;;;;15.43;10.27;;;20.80;99.90;;;;;;5065152;28;20501;-65
2021/06/27 06:49:16;;;;;;;15.02;10.95;;;20.90;99.90;;;;;;5064161;28;20583;-65
2021/06/27 06:51:43;;;;;;;13.10;10.52;;;21.00;99.90;;;;;;5069911;28;20049;-65
2021/06/27 06:54:10;;;;;;;13.20;9.82;;;21.20;99.90;;;;;;5068995;28;20504;-65
2021/06/27 06:56:37;;;;;;;13.48;10.57;;;21.40;99.90;;;;;;5069853;28;20451;-65
2021/06/27 06:59:04;;;;;;;17.83;12.18;;;21.50;99.90;;;;;;5070076;28;20088;-65
2021/06/27 07:01:31;;;;;;;16.98;11.32;;;21.70;99.90;;;;;;5070645;28;20093;-65
2021/06/27 07:04:00;;;;;;;13.75;9.63;;;22.00;99.90;;;;;;5070348;28;20158;-65
2021/06/27 07:06:27;;;;;;;13.90;10.25;;;22.10;99.90;;;;;;5070833;28;20105;-65
2021/06/27 07:08:54;;;;;;;15.45;11.23;;;22.10;99.90;;;;;;5067116;28;20561;-65
2021/06/27 07:11:20;;;;;;;13.93;9.88;;;22.10;99.90;;;;;;5068291;28;20052;-65
2021/06/27 07:13:47;;;;;;;14.95;9.90;;;22.20;99.90;;;;;;5068918;28;20397;-65
2021/06/27 07:16:14;;;;;;;13.40;8.95;;;22.20;99.90;;;;;;5068483;28;20055;-65
2021/06/27 07:18:41;;;;;;;11.07;8.88;;;22.30;99.90;;;;;;5067511;28;20048;-65
2021/06/27 07:21:10;;;;;;;11.35;8.18;;;22.50;99.90;;;;;;5071372;28;20416;-65
2021/06/27 07:23:37;;;;;;;13.35;8.00;;;22.60;99.90;;;;;;5067298;28;20098;-65
2021/06/27 07:26:04;;;;;;;14.10;8.27;;;22.80;99.90;;;;;;5067045;28;20102;-65
2021/06/27 07:28:31;;;;;;;12.90;8.52;;;22.80;99.90;;;;;;5070385;28;20048;-65
2021/06/27 07:30:59;;;;;;;12.55;9.52;;;22.90;99.90;;;;;;5069706;28;20061;-65
2021/06/27 07:33:26;;;;;;;11.75;8.55;;;23.00;99.90;;;;;;5067205;28;20052;-65
2021/06/27 07:35:53;;;;;;;11.10;8.98;;;22.80;99.90;;;;;;5068546;28;20048;-65
2021/06/27 07:38:21;;;;;;;14.85;8.95;;;23.00;99.90;;;;;;5067561;28;20052;-65
2021/06/27 07:40:48;;;;;;;13.95;8.43;;;23.00;99.90;;;;;;5066773;28;20447;-65
2021/06/27 07:43:15;;;;;;;13.52;9.32;;;23.20;99.90;;;;;;5069248;28;20583;-65
2021/06/27 07:45:44;;;;;;;13.27;8.35;;;23.20;99.90;;;;;;5067179;28;20112;-65
2021/06/27 07:48:12;;;;;;;14.10;8.52;;;23.20;99.90;;;;;;5067453;28;20056;-66
2021/06/27 07:50:39;;;;;;;12.32;8.27;;;23.20;99.90;;;;;;5069058;28;20048;-66
2021/06/27 07:53:06;;;;;;;13.52;7.90;;;23.50;99.90;;;;;;5069104;28;20531;-65
2021/06/27 07:55:36;;;;;;;10.55;7.80;;;23.50;99.90;;;;;;5068473;28;20140;-65
2021/06/27 07:58:04;;;;;;;10.25;8.23;;;23.60;99.90;;;;;;5068253;28;20128;-65
2021/06/27 08:00:31;;;;;;;11.70;8.48;;;23.50;99.90;;;;;;5065446;28;20397;-66
2021/06/27 08:02:59;;;;;;;12.55;8.20;;;23.50;99.90;;;;;;5068275;28;20052;-65
2021/06/27 08:05:26;;;;;;;10.48;8.75;;;23.60;99.90;;;;;;5069442;28;20101;-65
2021/06/27 08:07:53;;;;;;;12.20;9.20;;;23.70;99.90;;;;;;5066435;28;20351;-65
2021/06/27 08:10:20;;;;;;;13.85;8.85;;;23.90;99.90;;;;;;5066687;28;20125;-66
2021/06/27 08:12:49;;;;;;;15.18;9.80;;;23.90;99.90;;;;;;5068328;28;20080;-66
2021/06/27 08:15:19;;;;;;;15.48;10.55;;;24.10;99.90;;;;;;5069343;28;20121;-66
2021/06/27 08:17:47;;;;;;;12.85;8.43;;;24.10;99.90;;;;;;5066739;28;20071;-65
2021/06/27 08:20:15;;;;;;;12.77;9.57;;;24.40;99.90;;;;;;5068543;28;20080;-65
2021/06/27 08:22:42;;;;;;;12.35;9.48;;;24.60;99.90;;;;;;5068682;28;20437;-65
2021/06/27 08:25:10;;;;;;;12.10;9.05;;;24.70;99.90;;;;;;5069726;28;20074;-65
2021/06/27 08:27:38;;;;;;;9.93;8.32;;;25.00;99.90;;;;;;5067546;28;20072;-65
2021/06/27 08:30:09;;;;;;;10.30;8.02;;;25.00;99.90;;;;;;5071901;28;20473;-66
2021/06/27 08:32:37;;;;;;;12.15;8.35;;;25.20;99.90;;;;;;5067441;28;20059;-66
2021/06/27 08:35:05;;;;;;;11.07;7.97;;;25.40;99.90;;;;;;5070047;28;20154;-65
2021/06/27 08:37:32;;;;;;;9.77;7.63;;;25.70;99.90;;;;;;5064886;28;20121;-66
2021/06/27 08:39:59;;;;;;;9.75;7.95;;;25.70;99.90;;;;;;5066756;28;20521;-65
2021/06/27 08:42:27;;;;;;;8.88;7.55;;;25.50;99.90;;;;;;5067728;28;20138;-66
2021/06/27 08:44:54;;;;;;;9.65;5.88;;;25.50;99.90;;;;;;5067569;28;20079;-66
2021/06/27 08:47:23;;;;;;;7.88;5.63;;;25.60;99.90;;;;;;5068224;28;20053;-66
2021/06/27 08:49:51;;;;;;;8.60;5.97;;;26.20;99.90;;;;;;5068735;28;20137;-65
2021/06/27 08:52:19;;;;;;;10.63;5.63;;;26.50;99.90;;;;;;5068628;28;20092;-66
2021/06/27 08:54:47;;;;;;;7.63;5.97;;;26.70;99.90;;;;;;5067563;28;20051;-66
2021/06/27 08:57:15;;;;;;;7.25;5.63;;;26.90;99.90;;;;;;5063344;28;20056;-66
2021/06/27 08:59:43;;;;;;;9.68;5.43;;;27.30;99.90;;;;;;5066493;28;20480;-66
2021/06/27 09:02:10;;;;;;;7.03;5.65;;;27.50;99.90;;;;;;5065967;28;20134;-66
2021/06/27 09:04:40;;;;;;;7.60;5.47;;;27.60;99.90;;;;;;5067515;28;20048;-66
2021/06/27 09:07:30;;;;;;;7.00;5.35;;;28.10;99.90;;;;;;5066614;28;20061;-66
2021/06/27 09:10:04;;;;;;;6.93;5.13;;;28.70;99.90;;;;;;5067100;28;20165;-65
2021/06/27 09:12:48;;;;;;;6.85;4.80;;;29.70;99.90;;;;;;5068596;28;20147;-66
2021/06/27 09:15:33;;;;;;;7.50;5.28;;;30.30;99.90;;;;;;5067205;28;20101;-66
2021/06/27 09:18:04;;;;;;;6.38;4.85;;;30.30;99.90;;;;;;5067067;28;20143;-66
2021/06/27 09:20:33;;;;;;;6.00;4.40;;;30.50;99.90;;;;;;5067466;28;20051;-66
2021/06/27 09:23:01;;;;;;;5.95;4.80;;;31.10;99.90;;;;;;5066906;28;20057;-66
2021/06/27 09:25:29;;;;;;;6.20;4.57;;;31.90;99.90;;;;;;5066590;28;20048;-66
2021/06/27 09:28:05;;;;;;;5.78;4.20;;;32.70;99.90;;;;;;5067009;28;20048;-66
2021/06/27 09:30:32;;;;;;;;;;;32.90;99.90;;;;;;5067783;28;20052;-66
2021/06/27 09:33:03;;;;;;;5.82;4.45;;;32.20;99.90;;;;;;5064219;28;19925;-66
2021/06/27 09:35:46;;;;;;;5.93;4.55;;;31.90;99.90;;;;;;5067627;28;20055;-66
2021/06/27 09:38:38;;;;;;;5.65;4.20;;;32.30;99.90;;;;;;5065258;28;20052;-66
2021/06/27 09:41:12;;;;;;;6.28;4.03;;;33.00;99.90;;;;;;5068479;28;20055;-66
2021/06/27 09:43:41;;;;;;;5.17;4.03;;;33.00;99.90;;;;;;5068271;28;20454;-66
2021/06/27 09:46:13;;;;;;;5.72;3.75;;;32.30;99.60;;;;;;5064055;28;20117;-66
2021/06/27 09:48:51;;;;;;;6.55;3.92;;;31.60;99.00;;;;;;5064991;28;20040;-66
2021/06/27 09:51:20;;;;;;;6.40;3.80;;;31.80;98.80;;;;;;5067536;28;20408;-66
2021/06/27 09:53:47;;;;;;;5.43;3.60;;;31.70;98.10;;;;;;5064094;28;20134;-66
2021/06/27 09:56:15;;;;;;;5.40;3.95;;;31.50;97.50;;;;;;5066762;28;20335;-66
2021/06/27 09:58:56;;;;;;;4.93;3.65;;;31.20;98.60;;;;;;5065063;28;20134;-66
2021/06/27 10:01:28;;;;;;;5.93;3.75;;;30.90;98.70;;;;;;5064537;28;20105;-66
2021/06/27 10:03:56;;;;;;;5.55;3.75;;;31.60;98.90;;;;;;5068430;28;20044;-66
2021/06/27 10:06:27;;;;;;;5.43;3.88;;;31.60;98.40;;;;;;5067695;28;20152;-66
2021/06/27 10:08:55;;;;;;;6.00;3.58;;;31.40;98.70;;;;;;5067263;28;20516;-66
2021/06/27 10:11:23;;;;;;;7.60;4.40;;;31.80;99.10;;;;;;5065556;28;20055;-66
2021/06/27 10:13:52;;;;;;;6.82;4.03;;;31.90;98.90;;;;;;5067437;28;20152;-66
2021/06/27 10:16:27;;;;;;;7.47;4.22;;;31.30;98.60;;;;;;5066028;28;20500;-66
2021/06/27 10:18:55;;;;;;;5.85;4.43;;;31.30;99.50;;;;;;5066800;28;20409;-66
2021/06/27 10:21:22;;;;;;;6.25;4.00;;;31.70;98.90;;;;;;5066530;28;20110;-66
2021/06/27 10:23:51;;;;;;;5.95;3.67;;;31.90;98.70;;;;;;5068454;28;20087;-66
2021/06/27 10:26:19;;;;;;;5.22;3.78;;;32.40;97.40;;;;;;5069050;28;20140;-66
2021/06/27 10:28:48;;;;;;;6.65;3.88;;;32.20;96.60;;;;;;5073174;28;20622;-66
2021/06/27 10:31:16;;;;;;;5.55;4.10;;;32.00;95.80;;;;;;5067254;28;20048;-66
2021/06/27 10:33:45;;;;;;;4.60;3.53;;;31.30;95.60;;;;;;5069495;28;20105;-66
2021/06/27 10:36:14;;;;;;;4.75;3.47;;;31.50;96.30;;;;;;5072647;28;20056;-66
2021/06/27 10:38:47;;;;;;;5.82;3.85;;;31.90;95.40;;;;;;5070623;28;20052;-66
2021/06/27 10:41:15;;;;;;;5.43;3.80;;;32.60;94.90;;;;;;5069781;28;20064;-66
2021/06/27 10:44:03;;;;;;;7.25;3.70;;;32.30;94.40;;;;;;5071412;28;20512;-66
2021/06/27 10:46:41;;;;;;;6.97;3.40;;;31.90;95.60;;;;;;5070048;28;20047;-66
2021/06/27 10:49:24;;;;;;;4.43;3.35;;;32.70;95.60;;;;;;5067935;28;20052;-66
2021/06/27 10:52:00;;;;;;;6.00;3.75;;;33.60;94.30;;;;;;5069307;28;20075;-66
2021/06/27 10:54:28;;;;;;;5.93;3.60;;;34.40;93.40;;;;;;5070973;28;20431;-66
2021/06/27 10:57:00;;;;;;;6.70;3.40;;;34.50;92.40;;;;;;5068401;28;20109;-66
2021/06/27 10:59:55;;;;;;;5.03;3.17;;;32.60;91.50;;;;;;5067326;28;20067;-66
2021/06/27 11:02:36;;;;;;;4.85;2.75;;;32.30;90.40;;;;;;5069703;28;20052;-66
2021/06/27 11:05:39;;;;;;;5.10;3.40;;;32.60;89.80;;;;;;5069094;28;20753;-66
2021/06/27 11:08:07;;;;;;;5.35;3.00;;;33.30;90.10;;;;;;5067027;28;20093;-67
2021/06/27 11:10:36;;;;;;;4.72;3.53;;;34.20;88.70;;;;;;5070072;28;20132;-66
2021/06/27 11:13:15;;;;;;;5.57;3.63;;;34.40;89.40;;;;;;5067758;28;20137;-66
2021/06/27 11:16:02;;;;;;;6.03;3.33;;;35.00;86.20;;;;;;5070078;28;20079;-67
2021/06/27 11:18:32;;;;;;;4.28;3.28;;;34.20;84.90;;;;;;5072384;28;20432;-67
2021/06/27 11:21:08;;;;;;;3.83;2.85;;;33.30;85.70;;;;;;5067630;28;20097;-66
2021/06/27 11:23:50;;;;;;;;;;;33.40;84.30;;;;;;5072206;28;20400;-66
2021/06/27 11:27:02;;;;;;;5.40;3.13;;;34.30;82.30;;;;;;5070058;28;20007;-66
2021/06/27 11:29:49;;;;;;;4.25;3.05;;;34.50;82.50;;;;;;5068806;28;20135;-67
2021/06/27 11:32:43;;;;;;;9.65;3.45;;;34.30;81.50;;;;;;5070968;28;20149;-66
2021/06/27 11:35:11;;;;;;;4.28;3.30;;;34.60;82.80;;;;;;5068889;28;20056;-67
2021/06/27 11:37:46;;;;;;;5.18;3.20;;;34.90;79.90;;;;;;5066582;28;20130;-67
2021/06/27 11:40:13;;;;;;;5.13;3.08;;;35.20;82.90;;;;;;5069180;28;20059;-67
2021/06/27 11:42:50;;;;;;;5.82;3.10;;;35.50;79.30;;;;;;5068536;28;20129;-67
2021/06/27 11:45:39;;;;;;;4.50;3.30;;;35.20;76.20;;;;;;5069382;28;20125;-67
2021/06/27 11:48:09;;;;;;;5.82;4.00;;;35.10;79.70;;;;;;5067311;28;20052;-67
2021/06/27 11:50:38;;;;;;;6.10;3.90;;;36.00;79.40;;;;;;5066249;28;20102;-67
2021/06/27 11:53:06;;;;;;;6.63;3.60;;;36.10;79.80;;;;;;5068468;28;20516;-67
2021/06/27 11:55:38;;;;;;;6.75;3.47;;;37.00;76.70;;;;;;5069893;28;20443;-67
2021/06/27 11:58:06;;;;;;;6.68;3.70;;;37.10;76.80;;;;;;5069847;28;20149;-67
2021/06/27 12:00:40;;;;;;;5.93;3.10;;;37.10;73.70;;;;;;5068655;28;20044;-67
2021/06/27 12:03:08;;;;;;;5.45;3.58;;;35.80;72.20;;;;;;5070159;28;20476;-67
2021/06/27 12:05:36;;;;;;;6.85;3.67;;;35.80;73.10;;;;;;5069508;28;20048;-67
2021/06/27 12:08:08;;;;;;;4.05;3.10;;;35.90;75.20;;;;;;5068527;28;20056;-67
2021/06/27 12:10:37;;;;;;;7.53;3.72;;;36.40;74.50;;;;;;5067919;28;20067;-67
2021/06/27 12:13:05;;;;;;;4.88;3.53;;;36.30;69.80;;;;;;5069845;28;20501;-67
2021/06/27 12:15:36;;;;;;;4.68;3.28;;;34.40;73.00;;;;;;5071627;28;20083;-67
2021/06/27 12:18:09;;;;;;;6.25;3.42;;;34.80;77.10;;;;;;5068848;28;20055;-67
2021/06/27 12:20:41;;;;;;;4.70;3.30;;;35.10;74.10;;;;;;5070067;28;20073;-67
2021/06/27 12:23:10;;;;;;;4.85;3.60;;;36.00;71.00;;;;;;5066983;28;20141;-68
2021/06/27 12:25:40;;;;;;;7.78;3.50;;;36.30;73.80;;;;;;5068631;28;20079;-67
2021/06/27 12:28:09;;;;;;;5.10;3.35;;;35.30;72.60;;;;;;5069429;28;20097;-67
2021/06/27 12:30:58;;;;;;;7.95;3.40;;;35.70;72.60;;;;;;5069297;28;20067;-67
2021/06/27 12:33:29;;;;;;;6.38;3.80;;;36.90;74.50;;;;;;5066793;28;20117;-67
2021/06/27 12:35:59;;;;;;;5.13;3.10;;;37.10;72.10;;;;;;5068051;28;20109;-67
2021/06/27 12:38:27;;;;;;;4.72;3.47;;;37.60;73.90;;;;;;5068581;28;20527;-67
2021/06/27 12:40:57;;;;;;;5.05;3.70;;;37.00;72.80;;;;;;5068000;28;20087;-67
2021/06/27 12:43:36;;;;;;;4.78;3.72;;;36.80;72.10;;;;;;5066455;28;20551;-67
2021/06/27 12:46:27;;;;;;;5.40;3.40;;;36.20;70.10;;;;;;5069221;28;20048;-67